Time;durP1;ratioP1;P1;durP2;ratioP2;P2;SDS_P1;SDS_P2;PMS_P1;PMS_P2;Temp;Humidity;BMP_temperature;BMP_pressure;BME280_temperature;BME280_humidity;BME280_pressure;Samples;Min_cycle;Max_cycle;Signal;HPM_P1;HPM_P2
2022/08/10 00:00:59;;;;;;;4.63;2.72;;;16.20;99.90;;;;;;5035332;28;20479;-78
2022/08/10 00:03:24;;;;;;;3.47;2.67;;;16.10;99.90;;;;;;5034860;28;20103;-78
2022/08/10 00:05:53;;;;;;;2.53;2.30;;;16.00;99.90;;;;;;5034921;28;20128;-78
2022/08/10 00:08:20;;;;;;;2.92;2.60;;;16.00;99.90;;;;;;5034538;28;20053;-79
2022/08/10 00:18:32;;;;;;;4.63;2.67;;;16.00;99.90;;;;;;4014462;26;20487;-78
2022/08/10 00:20:58;;;;;;;3.85;2.95;;;16.00;99.90;;;;;;4978003;28;20046;-78
2022/08/10 00:23:24;;;;;;;3.45;3.15;;;16.00;99.90;;;;;;4995452;28;20058;-78
2022/08/10 00:25:49;;;;;;;4.68;3.10;;;16.00;99.90;;;;;;4978341;28;20050;-78
2022/08/10 00:28:15;;;;;;;3.67;2.70;;;16.00;99.90;;;;;;4995429;28;20393;-78
2022/08/10 00:30:41;;;;;;;2.92;2.30;;;15.90;99.90;;;;;;4995547;28;20134;-78
2022/08/10 00:33:07;;;;;;;6.07;3.20;;;15.90;99.90;;;;;;4995656;28;20053;-78
2022/08/10 00:35:32;;;;;;;4.75;2.60;;;15.90;99.90;;;;;;4978015;28;20043;-78
2022/08/10 00:37:58;;;;;;;5.88;3.33;;;15.90;99.90;;;;;;4995763;28;20050;-78
2022/08/10 00:40:24;;;;;;;5.13;4.50;;;15.90;99.90;;;;;;4995076;28;20046;-78
2022/08/10 00:42:50;;;;;;;5.55;3.88;;;15.90;99.90;;;;;;4995268;28;20050;-78
2022/08/10 00:45:16;;;;;;;4.28;3.40;;;16.90;99.90;;;;;;4995150;28;20042;-77
2022/08/10 00:47:41;;;;;;;5.82;3.55;;;15.90;99.90;;;;;;4977866;28;20042;-78
2022/08/10 00:50:08;;;;;;;4.07;3.67;;;15.90;99.90;;;;;;4995191;28;20046;-78
2022/08/10 00:52:35;;;;;;;5.85;4.78;;;15.80;99.90;;;;;;4995317;28;20042;-78
2022/08/10 00:55:02;;;;;;;7.10;4.20;;;15.80;99.90;;;;;;4962148;28;20060;-78
2022/08/10 00:57:28;;;;;;;4.95;4.25;;;15.20;99.90;;;;;;4978009;28;20054;-78
2022/08/10 00:59:54;;;;;;;6.63;4.55;;;15.80;99.90;;;;;;4995099;28;20046;-78
2022/08/10 01:02:20;;;;;;;8.20;4.45;;;15.70;99.90;;;;;;4995167;28;20050;-78
2022/08/10 01:04:46;;;;;;;4.45;3.65;;;15.80;99.90;;;;;;4995262;28;20050;-78
2022/08/10 01:07:25;;;;;;;5.20;3.95;;;15.70;99.90;;;;;;4994751;28;20041;-78
2022/08/10 01:10:17;;;;;;;7.00;4.65;;;15.70;99.90;;;;;;4994980;28;20077;-78
2022/08/10 01:12:53;;;;;;;7.90;4.97;;;15.70;99.90;;;;;;4977461;28;20047;-78
2022/08/10 01:15:28;;;;;;;10.68;5.03;;;15.70;99.90;;;;;;4994792;28;20062;-78
2022/08/10 01:18:14;;;;;;;6.25;4.40;;;15.70;99.90;;;;;;4994960;28;20175;-78
2022/08/10 01:21:01;;;;;;;10.10;5.38;;;15.70;99.90;;;;;;4994673;28;20470;-78
2022/08/10 01:23:49;;;;;;;7.95;5.60;;;15.70;99.90;;;;;;4994809;28;20093;-78
2022/08/10 01:26:56;;;;;;;5.57;4.05;;;15.70;99.90;;;;;;4977587;28;20464;-78
2022/08/10 01:29:34;;;;;;;7.95;5.18;;;15.70;99.90;;;;;;4994641;28;20423;-79
2022/08/10 01:32:05;;;;;;;7.22;5.22;;;15.60;99.90;;;;;;4977004;28;20046;-79
2022/08/10 01:35:09;;;;;;;8.70;6.32;;;15.70;99.90;;;;;;4994957;28;20050;-78
2022/08/10 01:37:42;;;;;;;6.47;4.70;;;15.70;99.90;;;;;;4957658;28;20050;-79
2022/08/10 01:40:12;;;;;;;7.22;5.28;;;15.10;99.90;;;;;;4977690;28;20054;-79
2022/08/10 01:42:41;;;;;;;6.53;5.15;;;15.70;99.90;;;;;;4994264;28;20081;-79
2022/08/10 01:45:09;;;;;;;8.45;4.75;;;15.70;99.90;;;;;;4993021;28;20509;-80
2022/08/10 01:50:36;;;;;;;9.27;6.22;;;15.70;99.90;;;;;;4994092;28;20087;-79
2022/08/10 01:53:06;;;;;;;10.07;5.82;;;15.70;99.90;;;;;;4994117;28;20082;-79
2022/08/10 01:55:33;;;;;;;10.25;6.38;;;15.70;99.90;;;;;;4976542;28;20042;-79
2022/08/10 01:58:03;;;;;;;11.82;7.47;;;15.70;99.90;;;;;;4993952;28;20062;-78
2022/08/10 02:00:31;;;;;;;7.25;6.10;;;15.70;99.90;;;;;;4976688;28;20054;-79
2022/08/10 02:02:57;;;;;;;8.43;6.10;;;15.70;99.90;;;;;;4994010;28;20050;-79
2022/08/10 02:05:25;;;;;;;10.60;6.68;;;15.70;99.90;;;;;;4994475;28;20127;-79
2022/08/10 02:07:54;;;;;;;9.98;6.82;;;15.70;99.90;;;;;;4994343;28;20046;-79
2022/08/10 02:10:22;;;;;;;14.75;7.28;;;15.70;99.90;;;;;;4976789;28;20054;-79
2022/08/10 02:12:49;;;;;;;10.90;7.22;;;15.70;99.90;;;;;;4976665;28;20374;-79
2022/08/10 02:15:19;;;;;;;9.57;5.78;;;15.70;99.90;;;;;;4993939;28;20049;-79
2022/08/10 02:17:50;;;;;;;10.55;7.30;;;15.70;99.90;;;;;;4993406;28;20054;-79
2022/08/10 02:20:20;;;;;;;10.15;6.28;;;15.70;99.90;;;;;;4992575;28;20073;-78
2022/08/10 02:22:49;;;;;;;10.18;7.68;;;15.70;99.90;;;;;;4993531;28;20050;-79
2022/08/10 02:25:17;;;;;;;9.80;6.60;;;15.70;99.90;;;;;;4993621;28;20038;-79
2022/08/10 02:27:43;;;;;;;9.13;6.57;;;15.70;99.90;;;;;;4993352;28;20081;-79
2022/08/10 02:30:11;;;;;;;12.20;8.10;;;15.70;99.90;;;;;;4993944;28;20092;-79
2022/08/10 02:32:37;;;;;;;11.07;6.75;;;15.70;99.90;;;;;;4993462;28;20108;-79
2022/08/10 02:35:07;;;;;;;9.85;6.95;;;15.70;99.90;;;;;;4993330;28;20501;-79
2022/08/10 02:37:36;;;;;;;9.93;6.72;;;15.70;99.90;;;;;;4993172;28;20046;-79
2022/08/10 02:40:02;;;;;;;13.48;7.05;;;15.70;99.90;;;;;;4993315;28;20046;-78
2022/08/10 02:42:37;;;;;;;10.27;6.25;;;15.60;99.90;;;;;;4993603;28;20053;-78
2022/08/10 02:45:10;;;;;;;9.60;6.85;;;15.60;99.90;;;;;;4993574;28;20042;-78
2022/08/10 02:47:45;;;;;;;8.85;6.53;;;15.60;99.90;;;;;;4993415;28;20090;-79
2022/08/10 02:50:26;;;;;;;11.02;7.82;;;15.60;99.90;;;;;;4992209;28;20050;-79
2022/08/10 02:53:07;;;;;;;11.00;7.57;;;15.60;99.90;;;;;;4976086;28;20069;-79
2022/08/10 02:55:36;;;;;;;11.45;7.30;;;15.60;99.90;;;;;;4993523;28;20050;-79
2022/08/10 02:58:07;;;;;;;8.82;5.07;;;15.60;99.90;;;;;;4993533;28;20074;-79
2022/08/10 03:00:39;;;;;;;11.90;6.90;;;15.50;99.90;;;;;;4993412;28;20046;-79
2022/08/10 03:03:05;;;;;;;6.60;5.05;;;15.60;99.90;;;;;;4993340;28;20042;-79
2022/08/10 03:05:32;;;;;;;13.48;7.60;;;15.50;99.90;;;;;;4993679;28;20046;-79
2022/08/10 03:08:03;;;;;;;9.98;7.35;;;15.50;99.90;;;;;;4993135;28;20046;-79
2022/08/10 03:10:32;;;;;;;11.40;6.90;;;15.50;99.90;;;;;;4975901;28;20062;-79
2022/08/10 03:13:00;;;;;;;9.60;7.22;;;15.50;99.90;;;;;;4993222;28;20050;-79
2022/08/10 03:15:31;;;;;;;9.55;7.25;;;15.40;99.90;;;;;;4993045;28;20503;-79
2022/08/10 03:17:58;;;;;;;10.57;7.15;;;15.40;99.90;;;;;;4975522;28;20058;-79
2022/08/10 03:20:52;;;;;;;10.65;7.18;;;15.40;99.90;;;;;;4993335;28;20490;-79
2022/08/10 03:23:22;;;;;;;9.95;6.70;;;15.40;99.90;;;;;;4989418;28;20498;-79
2022/08/10 03:25:51;;;;;;;10.07;7.75;;;15.40;99.90;;;;;;4993549;28;20050;-79
2022/08/10 03:28:17;;;;;;;14.30;8.32;;;15.30;99.90;;;;;;4992509;28;20057;-78
2022/08/10 03:30:44;;;;;;;11.60;7.68;;;15.40;99.90;;;;;;4993604;28;20126;-79
2022/08/10 03:33:11;;;;;;;12.48;7.13;;;15.30;99.90;;;;;;4993441;28;20046;-79
2022/08/10 03:35:36;;;;;;;11.18;7.18;;;15.30;99.90;;;;;;4993198;28;20112;-79
2022/08/10 03:38:03;;;;;;;10.90;7.28;;;15.30;99.90;;;;;;4993197;28;20046;-79
2022/08/10 03:40:34;;;;;;;9.40;6.55;;;15.30;99.90;;;;;;4993246;28;20074;-79
2022/08/10 03:43:02;;;;;;;12.10;7.05;;;15.30;99.90;;;;;;4975571;28;20058;-79
2022/08/10 03:45:31;;;;;;;9.80;6.47;;;15.30;99.90;;;;;;4993158;28;20130;-79
2022/08/10 03:47:57;;;;;;;12.68;6.85;;;15.30;99.90;;;;;;4994795;28;20422;-79
2022/08/10 03:50:26;;;;;;;12.75;7.60;;;15.30;99.90;;;;;;4995956;28;20050;-79
2022/08/10 03:52:54;;;;;;;11.88;7.43;;;15.30;99.90;;;;;;4997007;28;20125;-79
2022/08/10 03:55:21;;;;;;;14.25;8.30;;;15.30;99.90;;;;;;4996908;28;20485;-79
2022/08/10 03:57:47;;;;;;;13.98;8.23;;;15.30;99.90;;;;;;4997142;28;20058;-78
2022/08/10 04:00:17;;;;;;;8.95;5.80;;;15.30;99.90;;;;;;4997039;28;20473;-78
2022/08/10 04:02:47;;;;;;;13.38;7.90;;;15.20;99.90;;;;;;4996790;28;20457;-79
2022/08/10 04:05:16;;;;;;;11.25;7.85;;;15.20;99.90;;;;;;4996924;28;20050;-78
2022/08/10 04:07:45;;;;;;;16.77;8.35;;;15.20;99.90;;;;;;4997480;28;20077;-78
2022/08/10 04:10:13;;;;;;;10.43;7.32;;;15.30;99.90;;;;;;4997477;28;20173;-78
2022/08/10 04:12:39;;;;;;;13.98;8.25;;;15.20;99.90;;;;;;4997173;28;20050;-78
2022/08/10 04:15:05;;;;;;;14.65;8.13;;;15.20;99.90;;;;;;4980082;28;20100;-77
2022/08/10 04:17:31;;;;;;;12.27;7.10;;;15.30;99.90;;;;;;4997829;28;20066;-78
2022/08/10 04:19:59;;;;;;;12.32;9.40;;;15.20;99.90;;;;;;4997255;28;20050;-79
2022/08/10 04:22:27;;;;;;;16.58;8.23;;;15.30;99.90;;;;;;4980820;28;20061;-78
2022/08/10 04:24:57;;;;;;;16.13;10.10;;;15.30;99.90;;;;;;4980982;28;20054;-78
2022/08/10 04:27:24;;;;;;;13.93;8.68;;;15.30;99.90;;;;;;4982303;28;20050;-78
2022/08/10 04:29:50;;;;;;;14.00;8.98;;;15.30;99.90;;;;;;5008279;28;20137;-78
2022/08/10 04:32:19;;;;;;;12.52;8.60;;;15.60;99.90;;;;;;4994913;28;20050;-78
2022/08/10 04:34:46;;;;;;;16.67;9.00;;;15.30;99.90;;;;;;5012493;28;20113;-78
2022/08/10 04:37:13;;;;;;;15.40;9.68;;;15.40;99.90;;;;;;4993610;28;20046;-78
2022/08/10 04:39:39;;;;;;;13.60;8.30;;;15.40;99.90;;;;;;5011096;28;20042;-78
2022/08/10 04:42:05;;;;;;;15.60;7.65;;;15.40;99.90;;;;;;5011402;28;20042;-79
2022/08/10 04:44:32;;;;;;;11.00;8.43;;;15.40;99.90;;;;;;4985639;28;20054;-78
2022/08/10 04:46:57;;;;;;;11.27;6.85;;;15.40;99.90;;;;;;5000748;28;20060;-78
2022/08/10 04:49:23;;;;;;;13.85;8.18;;;15.40;99.90;;;;;;4983624;28;20086;-78
2022/08/10 04:51:49;;;;;;;13.93;9.13;;;15.40;99.90;;;;;;5001772;28;20046;-78
2022/08/10 04:54:14;;;;;;;12.23;8.52;;;15.50;99.90;;;;;;5009342;28;20053;-78
2022/08/10 04:56:40;;;;;;;11.80;8.20;;;15.50;99.90;;;;;;4975445;28;20053;-78
2022/08/10 04:59:08;;;;;;;13.55;8.20;;;15.60;99.90;;;;;;5006235;28;20050;-78
2022/08/10 05:01:36;;;;;;;13.35;7.82;;;15.60;99.90;;;;;;5006689;28;20073;-78
2022/08/10 05:04:02;;;;;;;9.82;7.30;;;15.60;99.90;;;;;;5006256;28;20094;-78
2022/08/10 05:06:27;;;;;;;14.55;8.02;;;15.60;99.90;;;;;;5004973;28;20049;-78
2022/08/10 05:08:53;;;;;;;14.00;8.13;;;15.70;99.90;;;;;;5004264;28;20105;-78
2022/08/10 05:11:19;;;;;;;11.50;7.25;;;15.60;99.90;;;;;;5002678;28;20050;-78
2022/08/10 05:13:44;;;;;;;10.55;8.52;;;15.70;99.90;;;;;;5003061;28;20053;-79
2022/08/10 05:16:10;;;;;;;15.65;9.35;;;15.70;99.90;;;;;;5002080;28;20486;-78
2022/08/10 05:18:36;;;;;;;12.90;8.68;;;15.80;99.90;;;;;;5000639;28;20455;-79
2022/08/10 05:21:02;;;;;;;13.27;8.05;;;15.80;99.90;;;;;;4981954;28;20058;-79
2022/08/10 05:23:27;;;;;;;9.60;7.75;;;15.90;99.90;;;;;;4997370;28;20379;-79
2022/08/10 05:25:53;;;;;;;9.25;6.00;;;15.90;99.90;;;;;;4978137;28;20066;-79
2022/08/10 05:28:19;;;;;;;13.63;8.98;;;16.00;99.90;;;;;;4995150;28;20096;-80
2022/08/10 05:30:44;;;;;;;10.65;8.02;;;16.00;99.90;;;;;;4995668;28;20058;-80
2022/08/10 05:33:10;;;;;;;8.50;6.20;;;16.20;99.90;;;;;;4994845;28;20470;-78
2022/08/10 05:35:37;;;;;;;12.73;7.70;;;16.20;99.90;;;;;;4995053;28;20477;-78
2022/08/10 05:38:04;;;;;;;12.98;7.97;;;16.30;99.90;;;;;;4977244;28;20062;-78
2022/08/10 05:40:30;;;;;;;14.25;8.02;;;16.30;99.90;;;;;;4977027;28;20413;-78
2022/08/10 05:42:56;;;;;;;9.00;6.93;;;16.40;99.90;;;;;;4994312;28;20038;-78
2022/08/10 05:45:26;;;;;;;13.18;7.20;;;16.40;99.90;;;;;;4994145;28;20061;-78
2022/08/10 05:47:52;;;;;;;13.00;7.88;;;16.60;99.90;;;;;;4994304;28;20086;-78
2022/08/10 05:50:20;;;;;;;11.45;7.85;;;16.60;99.90;;;;;;4977586;28;20046;-79
2022/08/10 05:52:46;;;;;;;10.90;6.68;;;16.70;99.90;;;;;;4994737;28;20070;-79
2022/08/10 05:55:12;;;;;;;12.70;7.68;;;16.70;99.90;;;;;;4994234;28;20462;-79
2022/08/10 05:57:39;;;;;;;11.63;6.90;;;16.80;99.90;;;;;;4994886;28;20058;-79
2022/08/10 06:00:08;;;;;;;10.23;6.85;;;16.80;99.90;;;;;;4994249;28;20056;-78
2022/08/10 06:02:42;;;;;;;11.18;7.30;;;16.90;99.90;;;;;;4976929;28;20145;-77
2022/08/10 06:05:13;;;;;;;11.60;7.38;;;16.90;99.90;;;;;;4993898;28;20445;-79
2022/08/10 06:07:50;;;;;;;8.13;6.43;;;17.00;99.90;;;;;;4994182;28;20060;-79
2022/08/10 06:10:19;;;;;;;11.52;6.75;;;17.00;99.90;;;;;;4994280;28;20050;-79
2022/08/10 06:12:47;;;;;;;10.23;6.60;;;17.10;99.90;;;;;;4993657;28;20055;-78
2022/08/10 06:15:17;;;;;;;10.10;6.55;;;17.20;99.90;;;;;;4996571;28;20058;-79
2022/08/10 06:17:43;;;;;;;8.88;5.50;;;17.30;99.90;;;;;;4996427;28;20104;-78
2022/08/10 06:20:10;;;;;;;11.15;6.50;;;17.40;99.90;;;;;;4997754;28;20058;-78
2022/08/10 06:22:36;;;;;;;8.38;5.85;;;17.50;99.90;;;;;;4994908;28;20050;-79
2022/08/10 06:25:02;;;;;;;7.45;5.50;;;17.60;99.90;;;;;;4994412;28;20445;-78
2022/08/10 06:27:28;;;;;;;8.50;5.70;;;17.70;99.90;;;;;;4994869;28;20046;-78
2022/08/10 06:29:55;;;;;;;10.32;5.28;;;17.80;99.90;;;;;;4993789;28;20089;-80
2022/08/10 06:32:27;;;;;;;9.25;5.82;;;17.90;99.90;;;;;;4993665;28;20045;-79
2022/08/10 06:34:57;;;;;;;9.55;6.22;;;18.00;99.90;;;;;;4993499;28;20042;-79
2022/08/10 06:37:26;;;;;;;5.75;4.40;;;18.00;99.90;;;;;;4993409;28;20082;-79
2022/08/10 06:39:52;;;;;;;11.05;5.72;;;18.20;99.90;;;;;;4993581;28;20061;-78
2022/08/10 06:42:36;;;;;;;7.82;4.93;;;18.30;99.90;;;;;;4993789;28;20076;-82
2022/08/10 06:45:08;;;;;;;5.38;4.70;;;18.50;99.90;;;;;;4976688;28;20049;-79
2022/08/10 06:47:48;;;;;;;7.18;5.63;;;18.70;99.90;;;;;;4993841;28;20100;-78
2022/08/10 06:50:25;;;;;;;6.20;4.43;;;18.80;99.90;;;;;;4992800;28;20050;-79
2022/08/10 06:52:53;;;;;;;6.40;4.55;;;19.00;99.90;;;;;;4976303;28;20046;-78
2022/08/10 06:55:22;;;;;;;7.95;4.68;;;19.30;99.90;;;;;;4975576;28;20401;-80
2022/08/10 06:57:50;;;;;;;6.47;4.45;;;20.30;99.90;;;;;;4993017;28;20050;-79
2022/08/10 07:00:17;;;;;;;5.45;4.50;;;21.90;99.90;;;;;;4976330;28;20185;-79
2022/08/10 07:02:53;;;;;;;6.38;4.32;;;23.10;99.90;;;;;;4992939;28;20039;-79
2022/08/10 07:05:22;;;;;;;5.20;3.95;;;23.80;99.90;;;;;;4993177;28;20042;-79
2022/08/10 07:07:49;;;;;;;4.82;3.80;;;24.70;99.90;;;;;;4992885;28;20443;-79
2022/08/10 07:10:18;;;;;;;7.68;3.72;;;25.30;99.90;;;;;;4993120;28;20046;-79
2022/08/10 07:12:47;;;;;;;5.07;3.72;;;25.80;99.90;;;;;;4992661;28;20462;-80
2022/08/10 07:15:16;;;;;;;6.55;3.80;;;26.00;99.90;;;;;;4992991;28;20046;-79
2022/08/10 07:17:44;;;;;;;5.60;3.90;;;26.20;99.90;;;;;;4959530;28;20475;-79
2022/08/10 07:20:15;;;;;;;4.47;3.63;;;26.50;99.90;;;;;;4975780;28;20050;-78
2022/08/10 07:22:44;;;;;;;6.03;3.42;;;27.00;98.40;;;;;;4977744;28;20042;-79
2022/08/10 07:25:11;;;;;;;6.82;3.30;;;26.80;98.00;;;;;;4996728;28;20049;-79
2022/08/10 07:27:39;;;;;;;4.88;3.65;;;26.40;98.30;;;;;;4996640;28;20115;-79
2022/08/10 07:30:06;;;;;;;4.60;3.38;;;26.40;98.50;;;;;;4979388;28;20117;-78
2022/08/10 07:32:33;;;;;;;7.07;3.53;;;26.70;98.50;;;;;;4996877;28;20050;-78
2022/08/10 07:35:00;;;;;;;4.13;3.28;;;27.00;97.90;;;;;;4996805;28;20085;-78
2022/08/10 07:37:28;;;;;;;3.65;2.80;;;27.20;97.90;;;;;;4996626;28;20527;-76
2022/08/10 07:39:55;;;;;;;4.53;3.50;;;27.10;97.00;;;;;;4996679;28;20046;-77
2022/08/10 07:42:23;;;;;;;4.97;3.17;;;27.40;96.60;;;;;;4996400;28;20048;-78
2022/08/10 07:44:49;;;;;;;5.03;3.00;;;27.80;96.00;;;;;;4996672;28;20054;-79
2022/08/10 07:47:27;;;;;;;4.97;2.67;;;28.10;95.80;;;;;;4996788;28;20047;-78
2022/08/10 07:49:57;;;;;;;4.72;2.70;;;28.70;94.00;;;;;;4996701;28;20069;-78
2022/08/10 07:52:23;;;;;;;4.75;2.50;;;;;;;;;;4978497;28;20042;-78
2022/08/10 07:54:52;;;;;;;3.95;2.20;;;28.90;93.70;;;;;;4996224;28;20062;-78
2022/08/10 07:57:27;;;;;;;2.72;2.40;;;29.10;90.10;;;;;;4996516;28;20050;-77
2022/08/10 08:00:00;;;;;;;4.30;2.55;;;29.10;91.90;;;;;;4979571;28;20386;-78
2022/08/10 08:02:33;;;;;;;3.38;1.92;;;29.10;91.10;;;;;;4996744;28;20038;-78
2022/08/10 08:05:03;;;;;;;5.03;3.15;;;29.20;92.10;;;;;;4996271;28;20104;-77
2022/08/10 08:07:31;;;;;;;5.28;2.22;;;29.50;91.40;;;;;;4996793;28;20066;-77
2022/08/10 08:09:59;;;;;;;4.85;2.35;;;30.10;90.60;;;;;;4996650;28;20058;-78
2022/08/10 08:12:26;;;;;;;3.60;2.50;;;30.10;90.30;;;;;;4996099;28;20153;-77
2022/08/10 08:14:53;;;;;;;4.30;2.15;;;30.20;90.00;;;;;;4995898;28;20129;-79
2022/08/10 08:17:23;;;;;;;3.42;2.28;;;29.80;89.80;;;;;;4995767;28;20058;-77
2022/08/10 08:19:50;;;;;;;3.45;2.20;;;29.90;87.30;;;;;;4994517;28;20129;-77
2022/08/10 08:22:19;;;;;;;3.50;2.15;;;29.90;88.80;;;;;;4995869;28;20051;-78
2022/08/10 08:24:45;;;;;;;2.05;1.95;;;30.20;88.10;;;;;;4995949;28;20042;-73
2022/08/10 08:27:15;;;;;;;3.88;2.20;;;30.30;87.00;;;;;;4995880;28;20053;-74
2022/08/10 08:29:43;;;;;;;3.67;2.00;;;29.90;86.00;;;;;;4978316;28;20047;-73
2022/08/10 08:32:11;;;;;;;3.45;2.35;;;29.70;86.90;;;;;;4995725;28;20038;-73
2022/08/10 08:34:39;;;;;;;3.08;2.08;;;29.90;86.00;;;;;;4994325;28;20050;-73
2022/08/10 08:37:08;;;;;;;3.72;2.30;;;29.90;86.40;;;;;;4978245;28;20115;-73
2022/08/10 08:39:35;;;;;;;2.65;2.10;;;29.90;86.30;;;;;;4995207;28;20462;-73
2022/08/10 08:42:07;;;;;;;2.42;1.70;;;30.40;86.60;;;;;;4977822;28;20053;-71
2022/08/10 08:45:18;;;;;;;2.65;2.13;;;30.90;82.70;;;;;;4978142;28;20054;-73
2022/08/10 08:48:21;;;;;;;3.35;2.00;;;31.20;89.50;;;;;;4933613;28;20524;-72
2022/08/10 08:51:24;;;;;;;3.40;2.65;;;27.90;80.30;;;;;;4995135;28;20051;-71
2022/08/10 08:54:14;;;;;;;4.55;1.95;;;30.00;81.60;;;;;;4977824;28;20478;-71
2022/08/10 08:56:49;;;;;;;4.03;2.50;;;30.10;82.30;;;;;;4994809;28;20046;-72
2022/08/10 08:59:53;;;;;;;5.60;2.10;;;30.40;84.30;;;;;;4994717;28;20093;-72
2022/08/10 09:02:37;;;;;;;4.07;1.83;;;30.30;80.40;;;;;;4964817;28;20129;-73
2022/08/10 09:05:21;;;;;;;4.50;2.47;;;30.60;83.90;;;;;;4977964;28;20061;-73
2022/08/10 09:07:56;;;;;;;4.32;2.17;;;30.30;80.30;;;;;;4994935;28;20050;-72
2022/08/10 09:10:46;;;;;;;5.35;1.90;;;30.00;81.80;;;;;;4994849;28;20057;-73
2022/08/10 09:13:38;;;;;;;5.30;2.05;;;30.10;80.80;;;;;;4995113;28;20089;-74
2022/08/10 09:16:07;;;;;;;2.85;2.10;;;30.50;80.10;;;;;;4977964;28;20046;-74
2022/08/10 09:19:03;;;;;;;5.28;2.50;;;30.00;82.40;;;;;;4977453;28;20050;-73
2022/08/10 09:21:40;;;;;;;2.42;2.20;;;29.80;79.90;;;;;;4994723;28;20090;-74
2022/08/10 09:24:15;;;;;;;3.20;2.40;;;29.80;81.70;;;;;;4961643;28;20054;-73
2022/08/10 09:26:40;;;;;;;3.60;1.83;;;30.20;82.10;;;;;;4977844;28;20046;-73
2022/08/10 09:29:10;;;;;;;2.22;1.80;;;30.40;82.90;;;;;;4994493;28;20429;-73
2022/08/10 09:31:53;;;;;;;3.03;1.77;;;30.70;80.90;;;;;;4994746;28;20042;-74
2022/08/10 09:34:39;;;;;;;;;;;30.80;79.10;;;;;;4995022;28;20103;-73
2022/08/10 09:37:18;;;;;;;4.40;1.83;;;29.90;80.70;;;;;;4977775;28;19922;-73
2022/08/10 09:40:05;;;;;;;2.17;1.95;;;30.00;81.70;;;;;;4977545;28;20082;-74
2022/08/10 09:42:48;;;;;;;3.28;2.05;;;30.70;79.60;;;;;;4993281;28;20054;-74
2022/08/10 09:45:19;;;;;;;5.70;1.90;;;30.30;79.30;;;;;;4994391;28;20046;-73
2022/08/10 09:48:32;;;;;;;3.83;2.30;;;30.50;81.30;;;;;;4994578;28;20105;-74
2022/08/10 09:51:06;;;;;;;4.03;2.63;;;31.10;80.00;;;;;;4892234;28;20059;-74
2022/08/10 09:53:59;;;;;;;1.70;1.60;;;31.30;78.20;;;;;;4977097;28;20105;-75
2022/08/10 09:56:44;;;;;;;2.70;1.92;;;31.70;77.60;;;;;;4994200;28;20130;-74
2022/08/10 09:59:34;;;;;;;2.58;1.90;;;31.70;78.30;;;;;;4976671;28;20053;-75
2022/08/10 10:02:09;;;;;;;2.22;1.73;;;32.30;76.20;;;;;;4994577;28;20044;-74
2022/08/10 10:05:01;;;;;;;11.93;1.67;;;32.40;75.60;;;;;;4994090;28;20114;-75
2022/08/10 10:07:28;;;;;;;4.50;1.85;;;32.60;75.30;;;;;;4993848;28;20540;-73
2022/08/10 10:10:02;;;;;;;5.40;2.08;;;31.70;78.00;;;;;;4976750;28;20112;-74
2022/08/10 10:12:52;;;;;;;2.97;1.73;;;32.30;75.20;;;;;;4993828;28;20048;-74
2022/08/10 10:15:47;;;;;;;2.75;1.67;;;32.30;74.60;;;;;;4993869;28;20042;-75
2022/08/10 10:18:27;;;;;;;3.13;1.75;;;32.20;73.30;;;;;;4993682;28;20058;-74
2022/08/10 10:21:16;;;;;;;2.85;1.50;;;32.00;73.40;;;;;;4993609;28;20046;-74
2022/08/10 10:24:19;;;;;;;5.30;1.90;;;32.50;74.50;;;;;;4993678;28;20060;-75
2022/08/10 10:26:55;;;;;;;3.95;1.55;;;32.40;72.70;;;;;;4993788;28;20439;-74
2022/08/10 10:29:58;;;;;;;2.63;1.50;;;32.30;71.30;;;;;;4993185;28;20050;-72
2022/08/10 10:32:58;;;;;;;3.15;1.70;;;32.60;72.90;;;;;;4976403;28;20138;-74
2022/08/10 10:35:42;;;;;;;3.20;1.60;;;32.40;72.50;;;;;;4993591;28;20042;-74
2022/08/10 10:38:12;;;;;;;1.88;1.50;;;32.60;72.60;;;;;;4993553;28;20053;-75
2022/08/10 10:41:02;;;;;;;2.33;1.30;;;32.90;73.30;;;;;;4993800;28;20049;-74
2022/08/10 10:44:00;;;;;;;5.03;1.70;;;33.40;72.30;;;;;;4993619;28;20061;-73
2022/08/10 10:46:44;;;;;;;2.90;1.30;;;33.30;72.30;;;;;;4976128;28;20054;-74
2022/08/10 10:49:18;;;;;;;1.75;1.45;;;32.50;71.80;;;;;;4994731;28;20088;-74
2022/08/10 10:51:53;;;;;;;4.40;1.75;;;32.00;70.20;;;;;;4993219;28;20460;-74
2022/08/10 10:54:31;;;;;;;1.88;1.40;;;32.20;72.10;;;;;;4976542;28;20107;-74
2022/08/10 10:57:21;;;;;;;2.13;1.55;;;32.30;71.60;;;;;;4993098;28;20100;-79
2022/08/10 11:00:11;;;;;;;2.30;1.60;;;31.90;72.00;;;;;;4993202;28;20038;-77
2022/08/10 11:02:48;;;;;;;1.80;1.45;;;31.20;72.10;;;;;;4976091;28;20069;-78
2022/08/10 11:05:36;;;;;;;3.05;1.50;;;30.50;72.90;;;;;;4993252;28;20481;-78
2022/08/10 11:08:17;;;;;;;2.45;1.60;;;30.10;73.30;;;;;;4992640;28;20386;-76
2022/08/10 11:10:45;;;;;;;2.75;1.63;;;29.70;73.70;;;;;;4975405;28;20468;-78
2022/08/10 11:13:35;;;;;;;4.90;1.70;;;29.00;73.60;;;;;;4992641;28;20129;-79
2022/08/10 11:16:12;;;;;;;1.98;1.75;;;28.90;73.20;;;;;;4993212;28;20114;-78
2022/08/10 11:18:49;;;;;;;2.75;1.60;;;29.00;73.10;;;;;;4991872;28;20054;-77
2022/08/10 11:21:26;;;;;;;1.85;1.25;;;29.00;73.50;;;;;;4993173;28;20122;-80
2022/08/10 11:24:04;;;;;;;3.05;1.85;;;28.70;73.30;;;;;;4993020;28;20058;-81
2022/08/10 11:26:32;;;;;;;2.42;1.45;;;28.60;74.10;;;;;;4975802;28;20148;-81
2022/08/10 11:29:21;;;;;;;2.95;1.95;;;28.40;74.40;;;;;;4992726;28;20042;-76
2022/08/10 11:31:56;;;;;;;2.70;1.67;;;28.40;72.80;;;;;;4975491;28;20081;-77
2022/08/10 11:34:51;;;;;;;1.98;1.23;;;28.20;72.20;;;;;;4991831;28;20046;-81
2022/08/10 11:37:40;;;;;;;3.28;1.45;;;28.40;73.60;;;;;;4993956;28;20065;-78
2022/08/10 11:40:14;;;;;;;2.85;1.63;;;28.10;73.90;;;;;;4975611;28;20069;-80
2022/08/10 11:42:45;;;;;;;2.10;1.48;;;27.80;73.60;;;;;;4992575;28;20050;-81
2022/08/10 11:45:17;;;;;;;4.00;1.70;;;27.90;73.30;;;;;;4974831;28;20482;-77
2022/08/10 11:47:55;;;;;;;1.55;1.38;;;27.90;73.10;;;;;;4975508;28;20074;-76
2022/08/10 11:50:29;;;;;;;2.55;1.50;;;28.00;73.40;;;;;;4993012;28;20129;-74
2022/08/10 11:53:06;;;;;;;3.30;1.70;;;28.10;73.60;;;;;;4975358;28;20050;-78
2022/08/10 11:55:33;;;;;;;1.55;1.25;;;28.10;73.50;;;;;;4992752;28;20050;-78
2022/08/10 12:01:00;;;;;;;2.13;1.75;;;28.20;75.30;;;;;;4992484;28;20459;-77
2022/08/10 12:03:30;;;;;;;2.50;1.70;;;27.90;75.40;;;;;;4992860;28;20039;-78
2022/08/10 12:05:57;;;;;;;7.25;1.90;;;27.80;75.90;;;;;;4960234;28;20053;-78
2022/08/10 12:08:25;;;;;;;2.50;1.98;;;27.90;75.40;;;;;;4993531;28;20081;-77
2022/08/10 12:10:53;;;;;;;2.25;1.70;;;28.20;75.00;;;;;;4978403;28;20108;-77
2022/08/10 12:13:25;;;;;;;2.45;1.60;;;28.20;74.80;;;;;;4995622;28;20054;-78
2022/08/10 12:16:05;;;;;;;3.03;1.65;;;28.40;72.60;;;;;;4978453;28;20054;-79
2022/08/10 12:19:15;;;;;;;2.53;1.30;;;28.30;72.70;;;;;;4996069;28;20594;-78
2022/08/10 12:21:49;;;;;;;2.75;1.75;;;28.50;72.80;;;;;;4976252;28;20082;-78
2022/08/10 12:24:22;;;;;;;2.38;1.50;;;28.70;72.50;;;;;;4996584;28;20049;-80
2022/08/10 12:26:55;;;;;;;3.60;1.60;;;28.90;72.70;;;;;;4996767;28;20065;-78
2022/08/10 12:29:40;;;;;;;2.63;1.80;;;28.90;73.30;;;;;;4995760;28;20070;-78
2022/08/10 12:32:13;;;;;;;2.60;1.80;;;28.70;73.40;;;;;;4978581;28;20050;-76
2022/08/10 12:34:48;;;;;;;4.20;1.73;;;28.50;74.10;;;;;;4995397;28;20468;-77
2022/08/10 12:37:21;;;;;;;4.72;1.60;;;28.60;73.30;;;;;;4995649;28;20129;-78
2022/08/10 12:40:14;;;;;;;3.95;1.40;;;28.70;72.90;;;;;;4995798;28;20047;-77
2022/08/10 12:43:04;;;;;;;1.70;1.40;;;28.80;72.30;;;;;;4978572;28;20093;-81
2022/08/10 12:46:04;;;;;;;3.20;1.83;;;28.80;73.50;;;;;;4995544;28;20181;-83
2022/08/10 12:48:40;;;;;;;5.00;1.95;;;28.50;74.60;;;;;;4995093;28;20054;-77
2022/08/10 12:51:13;;;;;;;3.42;1.42;;;28.70;74.20;;;;;;4994678;28;20054;-77
2022/08/10 12:54:09;;;;;;;2.65;1.25;;;28.80;74.10;;;;;;4995067;28;20046;-77
2022/08/10 12:56:41;;;;;;;3.20;1.85;;;28.90;73.70;;;;;;4975486;28;20050;-78
2022/08/10 12:59:10;;;;;;;2.83;1.63;;;28.80;73.80;;;;;;4995346;28;20047;-78
2022/08/10 13:01:37;;;;;;;1.92;1.70;;;28.90;73.80;;;;;;4994948;28;20134;-77
2022/08/10 13:04:09;;;;;;;2.80;1.50;;;28.80;74.20;;;;;;4977871;28;20165;-77
2022/08/10 13:06:41;;;;;;;;;;;28.80;73.60;;;;;;4995253;28;20543;-77
2022/08/10 13:09:07;;;;;;;1.52;1.40;;;28.70;73.20;;;;;;4995001;28;19921;-76
2022/08/10 13:12:13;;;;;;;4.53;2.00;;;28.80;73.70;;;;;;4977693;28;20152;-76
2022/08/10 13:14:49;;;;;;;3.75;1.60;;;28.80;73.70;;;;;;4915311;29;20048;-77
2022/08/10 13:17:26;;;;;;;4.50;2.00;;;28.60;73.70;;;;;;4915138;29;20064;-77
2022/08/10 13:19:54;;;;;;;2.75;1.60;;;28.90;73.20;;;;;;4963307;28;20058;-77
2022/08/10 13:22:24;;;;;;;2.67;1.67;;;28.90;73.30;;;;;;4977686;28;20083;-78
2022/08/10 13:24:52;;;;;;;2.10;1.75;;;29.00;73.10;;;;;;4976955;28;20053;-78
2022/08/10 13:27:25;;;;;;;2.03;1.45;;;28.80;72.50;;;;;;4993747;28;20050;-78
2022/08/10 13:29:55;;;;;;;1.50;1.40;;;28.80;72.60;;;;;;4994525;28;20050;-78